createdAt,value
2023-03-05T00:02:13.384Z,19.07
2023-03-05T00:04:39.689Z,21.23
2023-03-05T00:07:08.904Z,19.27
2023-03-05T00:09:36.008Z,21.30
2023-03-05T00:12:02.333Z,21.37
2023-03-05T00:14:28.661Z,21.00
2023-03-05T00:16:54.998Z,18.90
2023-03-05T00:19:21.310Z,18.60
2023-03-05T00:21:47.596Z,19.87
2023-03-05T00:24:15.270Z,19.43
2023-03-05T00:26:41.547Z,21.20
2023-03-05T00:29:08.659Z,17.80
2023-03-05T00:31:35.801Z,16.83
2023-03-05T00:34:07.030Z,17.33
2023-03-05T00:36:33.478Z,15.93
2023-03-05T00:38:59.798Z,15.80
2023-03-05T00:41:26.291Z,16.73
2023-03-05T00:43:52.574Z,16.03
2023-03-05T00:46:18.942Z,14.80
2023-03-05T00:48:45.254Z,18.33
2023-03-05T00:51:11.608Z,16.57
2023-03-05T00:53:37.986Z,17.17
2023-03-05T00:56:04.426Z,18.43
2023-03-05T00:58:30.711Z,19.60
2023-03-05T01:00:57.995Z,20.63
2023-03-05T01:03:24.400Z,16.70
2023-03-05T01:05:50.703Z,16.30
2023-03-05T01:08:17.542Z,16.67
2023-03-05T01:10:43.870Z,17.77
2023-03-05T01:13:10.106Z,17.77
2023-03-05T01:15:36.380Z,16.70
2023-03-05T01:18:02.691Z,18.77
2023-03-05T01:20:28.958Z,17.33
2023-03-05T01:22:55.448Z,16.73
2023-03-05T01:25:21.762Z,16.37
2023-03-05T01:27:48.005Z,17.03
2023-03-05T01:30:14.494Z,15.70
2023-03-05T01:32:40.901Z,13.40
2023-03-05T01:35:07.695Z,13.70
2023-03-05T01:37:34.026Z,11.33
2023-03-05T01:40:00.319Z,11.10
2023-03-05T01:42:26.668Z,12.27
2023-03-05T01:45:00.632Z,11.20
2023-03-05T01:47:26.901Z,10.83
2023-03-05T01:49:54.327Z,11.63
2023-03-05T01:52:21.870Z,10.40
2023-03-05T01:54:49.864Z,10.27
2023-03-05T01:57:27.895Z,10.30
2023-03-05T01:59:56.622Z,11.20
2023-03-05T02:02:22.997Z,9.43
2023-03-05T02:04:50.792Z,10.20
2023-03-05T02:07:17.621Z,10.90
2023-03-05T02:09:43.967Z,9.70
2023-03-05T02:12:11.400Z,10.03
2023-03-05T02:14:38.358Z,10.20
2023-03-05T02:17:05.224Z,11.23
2023-03-05T02:19:45.777Z,9.73
2023-03-05T02:22:15.920Z,10.10
2023-03-05T02:24:42.184Z,9.07
2023-03-05T02:27:08.636Z,10.33
2023-03-05T02:29:37.315Z,8.70
2023-03-05T02:32:04.059Z,8.60
2023-03-05T02:34:30.498Z,8.07
2023-03-05T02:36:56.814Z,10.33
2023-03-05T02:39:23.329Z,9.10
2023-03-05T02:41:49.609Z,9.00
2023-03-05T02:44:15.858Z,9.03
2023-03-05T02:46:42.200Z,9.40
2023-03-05T02:49:08.486Z,8.33
2023-03-05T02:51:34.848Z,8.37
2023-03-05T02:54:01.114Z,9.50
2023-03-05T02:56:27.423Z,8.47
2023-03-05T02:58:53.689Z,8.17
2023-03-05T03:01:19.988Z,8.97
2023-03-05T03:03:46.398Z,8.57
2023-03-05T03:06:12.660Z,8.03
2023-03-05T03:08:38.934Z,8.10
2023-03-05T03:11:06.370Z,8.37
2023-03-05T03:13:32.611Z,8.87
2023-03-05T03:16:02.869Z,8.77
2023-03-05T03:18:29.178Z,10.63
2023-03-05T03:20:55.443Z,9.97
2023-03-05T03:23:21.729Z,9.33
2023-03-05T03:25:48.200Z,10.77
2023-03-05T03:28:14.450Z,10.07
2023-03-05T03:30:40.796Z,10.20
2023-03-05T03:33:07.326Z,9.57
2023-03-05T03:35:33.645Z,9.37
2023-03-05T03:38:00.003Z,11.00
2023-03-05T03:40:26.257Z,11.03
2023-03-05T03:42:53.144Z,10.53
2023-03-05T03:45:19.440Z,12.43
2023-03-05T03:47:47.584Z,10.53
2023-03-05T03:50:13.848Z,9.73
2023-03-05T03:52:40.170Z,10.27
2023-03-05T03:55:06.987Z,9.77
2023-03-05T03:57:33.569Z,10.60
2023-03-05T03:59:59.965Z,11.33
2023-03-05T04:02:26.299Z,11.57
2023-03-05T04:04:53.864Z,10.80
2023-03-05T04:07:20.135Z,10.70
2023-03-05T04:09:46.529Z,11.13
2023-03-05T04:12:17.846Z,11.77
2023-03-05T04:14:47.527Z,10.10
2023-03-05T04:17:13.820Z,11.53
2023-03-05T04:19:40.087Z,10.97
2023-03-05T04:22:07.612Z,9.97
2023-03-05T04:24:33.871Z,10.70
2023-03-05T04:27:00.150Z,11.63
2023-03-05T04:29:26.849Z,10.43
2023-03-05T04:31:53.139Z,10.27
2023-03-05T04:34:19.382Z,10.70
2023-03-05T04:36:45.840Z,10.77
2023-03-05T04:39:12.119Z,9.97
2023-03-05T04:41:38.393Z,10.17
2023-03-05T04:44:04.801Z,10.30
2023-03-05T04:46:31.132Z,10.37
2023-03-05T04:48:58.044Z,10.77
2023-03-05T04:51:24.724Z,10.67
2023-03-05T04:53:51.017Z,11.23
2023-03-05T04:56:17.318Z,10.87
2023-03-05T04:58:43.585Z,10.77
2023-03-05T05:01:09.859Z,11.63
2023-03-05T05:03:36.204Z,11.03
2023-03-05T05:06:02.584Z,10.90
2023-03-05T05:08:29.088Z,16.47
2023-03-05T05:11:05.705Z,31.07
2023-03-05T05:13:32.245Z,11.53
2023-03-05T05:15:58.818Z,11.80
2023-03-05T05:18:26.753Z,12.20
2023-03-05T05:20:53.155Z,11.03
2023-03-05T05:23:19.488Z,10.93
2023-03-05T05:25:45.760Z,11.07
2023-03-05T05:28:12.632Z,11.47
2023-03-05T05:30:38.957Z,10.67
2023-03-05T05:33:05.242Z,10.67
2023-03-05T05:35:31.539Z,11.10
2023-03-05T05:37:57.847Z,11.67
2023-03-05T05:40:24.302Z,11.27
2023-03-05T05:42:50.548Z,11.90
2023-03-05T05:45:16.870Z,11.27
2023-03-05T05:47:43.215Z,16.27
2023-03-05T05:50:10.774Z,12.57
2023-03-05T05:52:37.031Z,11.53
2023-03-05T05:55:03.510Z,10.17
2023-03-05T05:57:29.794Z,10.47
2023-03-05T05:59:56.476Z,10.07
2023-03-05T06:02:22.876Z,10.30
2023-03-05T06:04:49.168Z,10.40
2023-03-05T06:07:15.436Z,11.53
2023-03-05T06:09:41.704Z,11.00
2023-03-05T06:12:07.954Z,11.90
2023-03-05T06:14:34.278Z,12.20
2023-03-05T06:17:00.623Z,9.80
2023-03-05T06:19:26.897Z,11.90
2023-03-05T06:21:53.180Z,11.60
2023-03-05T06:24:19.639Z,11.80
2023-03-05T06:26:46.732Z,11.20
2023-03-05T06:29:13.430Z,12.23
2023-03-05T06:31:39.767Z,12.30
2023-03-05T06:34:06.342Z,11.63
2023-03-05T06:36:32.686Z,11.70
2023-03-05T06:38:59.008Z,12.53
2023-03-05T06:41:26.699Z,11.50
2023-03-05T06:43:53.207Z,12.40
2023-03-05T06:46:24.282Z,11.13
2023-03-05T06:48:51.113Z,11.23
2023-03-05T06:51:37.436Z,10.67
2023-03-05T06:54:11.670Z,10.70
2023-03-05T06:56:39.206Z,9.50
2023-03-05T06:59:05.734Z,9.60
2023-03-05T07:01:32.025Z,9.77
2023-03-05T07:04:00.235Z,9.03
2023-03-05T07:06:29.608Z,9.80
2023-03-05T07:08:56.768Z,8.70
2023-03-05T07:11:23.551Z,8.30
2023-03-05T07:13:50.638Z,7.63
2023-03-05T07:16:21.496Z,8.30
2023-03-05T07:18:48.256Z,7.80
2023-03-05T07:21:19.210Z,7.27
2023-03-05T07:23:45.600Z,7.10
2023-03-05T07:26:12.440Z,7.13
2023-03-05T07:28:39.090Z,7.70
2023-03-05T07:31:06.593Z,7.33
2023-03-05T07:33:33.570Z,7.63
2023-03-05T07:35:59.933Z,7.27
2023-03-05T07:38:26.240Z,6.97
2023-03-05T07:40:52.491Z,7.57
2023-03-05T07:43:19.084Z,7.37
2023-03-05T07:45:45.996Z,7.10
2023-03-05T07:48:13.576Z,7.47
2023-03-05T07:50:39.993Z,7.37
2023-03-05T07:53:06.385Z,7.50
2023-03-05T07:55:32.675Z,7.80
2023-03-05T07:57:59.018Z,7.90
2023-03-05T08:00:25.300Z,7.43
2023-03-05T08:02:51.636Z,7.47
2023-03-05T08:05:18.071Z,7.40
2023-03-05T08:07:44.328Z,7.83
2023-03-05T08:10:10.860Z,8.23
2023-03-05T08:12:37.237Z,7.83
2023-03-05T08:15:03.680Z,7.17
2023-03-05T08:17:29.956Z,7.50
2023-03-05T08:19:59.559Z,7.77
2023-03-05T08:22:26.550Z,7.70
2023-03-05T08:24:52.813Z,7.50
2023-03-05T08:27:19.259Z,7.60
2023-03-05T08:29:45.554Z,6.77
2023-03-05T08:32:12.292Z,7.70
2023-03-05T08:34:40.085Z,7.53
2023-03-05T08:37:07.693Z,7.50
2023-03-05T08:39:34.028Z,7.67
2023-03-05T08:42:00.316Z,7.40
2023-03-05T08:44:26.583Z,7.37
2023-03-05T08:46:52.940Z,7.47
2023-03-05T08:49:19.273Z,7.93
2023-03-05T08:51:45.506Z,7.27
2023-03-05T08:54:11.857Z,6.83
2023-03-05T08:56:39.247Z,7.40
2023-03-05T08:59:05.546Z,6.97
2023-03-05T09:01:32.255Z,7.10
2023-03-05T09:03:59.861Z,6.50
2023-03-05T09:06:26.623Z,6.60
2023-03-05T09:08:53.032Z,5.60
2023-03-05T09:11:19.408Z,5.97
2023-03-05T09:13:45.778Z,6.63
2023-03-05T09:16:13.327Z,5.33
2023-03-05T09:18:40.621Z,4.93
2023-03-05T09:21:07.753Z,4.60
2023-03-05T09:23:34.136Z,4.67
2023-03-05T09:26:00.484Z,4.37
2023-03-05T09:28:26.766Z,4.60
2023-03-05T09:30:53.013Z,4.47
2023-03-05T09:33:19.315Z,3.93
2023-03-05T09:35:45.791Z,4.90
2023-03-05T09:38:12.109Z,4.53
2023-03-05T09:40:59.489Z,3.93
2023-03-05T09:43:31.248Z,3.97
2023-03-05T09:46:02.201Z,3.60
2023-03-05T09:48:44.703Z,4.47
2023-03-05T09:51:13.877Z,3.70
2023-03-05T09:53:53.752Z,3.17
2023-03-05T09:56:22.664Z,3.47
2023-03-05T09:58:50.970Z,2.90
2023-03-05T10:01:35.414Z,3.00
2023-03-05T10:04:06.214Z,2.93
2023-03-05T10:06:36.648Z,3.00
2023-03-05T10:09:11.964Z,2.83
2023-03-05T10:11:47.194Z,2.83
2023-03-05T10:14:25.775Z,2.40
2023-03-05T10:17:11.061Z,2.40
2023-03-05T10:19:43.219Z,2.60
2023-03-05T10:22:28.750Z,2.53
2023-03-05T10:25:13.908Z,2.30
2023-03-05T10:27:43.168Z,2.20
2023-03-05T10:30:28.206Z,2.00
2023-03-05T10:33:10.232Z,2.30
2023-03-05T10:35:49.888Z,2.57
2023-03-05T10:38:22.712Z,2.27
2023-03-05T10:40:52.100Z,2.13
2023-03-05T10:43:23.762Z,6.77
2023-03-05T10:45:52.072Z,2.00
2023-03-05T10:48:25.729Z,2.30
2023-03-05T10:50:55.823Z,2.10
2023-03-05T10:53:28.234Z,1.83
2023-03-05T10:55:56.557Z,1.80
2023-03-05T10:58:24.726Z,1.87
2023-03-05T11:01:00.459Z,1.70
2023-03-05T11:03:26.843Z,1.60
2023-03-05T11:06:02.567Z,1.70
2023-03-05T11:08:32.891Z,2.03
2023-03-05T11:11:14.686Z,1.45
2023-03-05T11:13:51.836Z,1.53
2023-03-05T11:16:28.249Z,1.43
2023-03-05T11:19:13.455Z,4.47
2023-03-05T11:21:40.187Z,1.57
2023-03-05T11:24:14.358Z,2.40
2023-03-05T11:26:49.117Z,11.70
2023-03-05T11:29:17.953Z,1.58
2023-03-05T11:31:44.312Z,1.60
2023-03-05T11:34:16.797Z,2.40
2023-03-05T11:36:58.086Z,1.53
2023-03-05T11:39:25.186Z,16.50
2023-03-05T11:41:52.956Z,10.57
2023-03-05T11:44:24.878Z,9.03
2023-03-05T11:46:53.764Z,8.13
2023-03-05T11:49:21.711Z,2.17
2023-03-05T11:51:52.940Z,1.87
2023-03-05T11:54:22.834Z,5.60
2023-03-05T11:56:49.322Z,4.80
2023-03-05T11:59:20.506Z,2.80
2023-03-05T12:01:48.759Z,4.80
2023-03-05T12:04:15.759Z,2.83
2023-03-05T12:06:45.825Z,2.30
2023-03-05T12:09:29.548Z,2.00
2023-03-05T12:12:06.194Z,1.97
2023-03-05T12:14:46.295Z,9.03
2023-03-05T12:17:16.478Z,2.00
2023-03-05T12:19:55.564Z,2.57
2023-03-05T12:22:23.012Z,2.27
2023-03-05T12:24:49.903Z,2.43
2023-03-05T12:27:17.062Z,2.47
2023-03-05T12:29:44.964Z,2.77
2023-03-05T12:32:35.254Z,7.60
2023-03-05T12:35:22.133Z,3.50
2023-03-05T12:37:51.629Z,3.93
2023-03-05T12:40:17.891Z,3.30
2023-03-05T12:43:00.640Z,3.47
2023-03-05T12:45:28.658Z,3.13
2023-03-05T12:47:54.933Z,3.03
2023-03-05T12:50:27.251Z,3.03
2023-03-05T12:52:53.529Z,3.47
2023-03-05T12:55:23.342Z,3.20
2023-03-05T12:57:56.723Z,3.57
2023-03-05T13:00:27.789Z,3.30
2023-03-05T13:02:58.760Z,3.57
2023-03-05T13:05:27.850Z,3.63
2023-03-05T13:08:09.136Z,3.30
2023-03-05T13:10:35.453Z,3.30
2023-03-05T13:13:02.606Z,3.60
2023-03-05T13:15:29.180Z,3.10
2023-03-05T13:17:57.021Z,3.03
2023-03-05T13:20:31.282Z,3.67
2023-03-05T13:23:04.800Z,5.80
2023-03-05T13:25:31.105Z,4.77
2023-03-05T13:28:04.178Z,4.27
2023-03-05T13:30:31.130Z,4.87
2023-03-05T13:33:02.985Z,6.10
2023-03-05T13:35:31.119Z,4.63
2023-03-05T13:37:57.634Z,6.30
2023-03-05T13:40:25.294Z,5.10
2023-03-05T13:42:53.299Z,6.50
2023-03-05T13:45:24.862Z,17.00
2023-03-05T13:47:52.839Z,11.47
2023-03-05T13:50:38.731Z,6.03
2023-03-05T13:53:20.634Z,4.80
2023-03-05T13:55:47.870Z,4.50
2023-03-05T13:58:32.672Z,4.60
2023-03-05T14:01:12.217Z,4.43
2023-03-05T14:03:38.786Z,4.67
2023-03-05T14:06:12.037Z,4.30
2023-03-05T14:08:38.496Z,4.47
2023-03-05T14:11:15.325Z,4.60
2023-03-05T14:13:42.241Z,5.43
2023-03-05T14:16:11.034Z,4.73
2023-03-05T14:18:37.647Z,13.33
2023-03-05T14:21:11.319Z,4.90
2023-03-05T14:23:48.135Z,6.93
2023-03-05T14:26:28.798Z,6.80
2023-03-05T14:29:10.654Z,6.20
2023-03-05T14:31:45.587Z,8.53
2023-03-05T14:34:17.795Z,6.00
2023-03-05T14:36:47.293Z,5.40
2023-03-05T14:39:32.493Z,5.53
2023-03-05T14:42:15.360Z,6.50
2023-03-05T14:44:41.823Z,4.57
2023-03-05T14:47:08.108Z,4.63
2023-03-05T14:49:34.395Z,5.30
2023-03-05T14:52:00.670Z,5.13
2023-03-05T14:54:27.048Z,5.50
2023-03-05T14:56:53.465Z,5.03
2023-03-05T14:59:21.602Z,8.80
2023-03-05T15:01:50.318Z,6.40
2023-03-05T15:04:19.066Z,5.97
2023-03-05T15:06:48.130Z,6.70
2023-03-05T15:09:17.693Z,9.17
2023-03-05T15:11:44.372Z,5.90
2023-03-05T15:14:10.877Z,6.40
2023-03-05T15:16:37.319Z,4.80
2023-03-05T15:19:03.762Z,5.57
2023-03-05T15:21:30.912Z,6.53
2023-03-05T15:23:57.150Z,4.93
2023-03-05T15:26:23.477Z,6.43
2023-03-05T15:28:49.857Z,5.80
2023-03-05T15:31:17.129Z,4.87
2023-03-05T15:33:43.692Z,34.10
2023-03-05T15:36:10.073Z,6.87
2023-03-05T15:38:38.798Z,6.17
2023-03-05T15:41:05.885Z,10.83
2023-03-05T15:43:32.180Z,4.80
2023-03-05T15:45:58.499Z,5.47
2023-03-05T15:48:24.768Z,5.03
2023-03-05T15:50:51.135Z,5.43
2023-03-05T15:53:17.933Z,7.20
2023-03-05T15:55:44.588Z,6.80
2023-03-05T15:58:13.812Z,5.83
2023-03-05T16:00:40.710Z,5.57
2023-03-05T16:03:07.080Z,5.67
2023-03-05T16:05:34.195Z,5.27
2023-03-05T16:08:00.654Z,5.30
2023-03-05T16:10:28.255Z,5.90
2023-03-05T16:12:57.222Z,5.70
2023-03-05T16:15:23.785Z,5.30
2023-03-05T16:17:52.153Z,5.20
2023-03-05T16:20:19.345Z,5.50
2023-03-05T16:22:46.346Z,5.13
2023-03-05T16:25:12.728Z,4.90
2023-03-05T16:27:39.058Z,5.10
2023-03-05T16:30:05.607Z,4.37
2023-03-05T16:32:32.129Z,4.80
2023-03-05T16:34:58.470Z,4.47
2023-03-05T16:37:24.988Z,24.20
2023-03-05T16:39:51.280Z,5.43
2023-03-05T16:42:17.616Z,4.90
2023-03-05T16:44:44.223Z,4.73
2023-03-05T16:47:12.140Z,4.73
2023-03-05T16:49:38.799Z,16.20
2023-03-05T16:52:18.353Z,4.57
2023-03-05T16:54:45.724Z,4.40
2023-03-05T16:57:12.128Z,3.93
2023-03-05T16:59:38.514Z,4.60
2023-03-05T17:02:05.350Z,4.90
2023-03-05T17:04:31.995Z,5.47
2023-03-05T17:06:58.344Z,5.17
2023-03-05T17:09:24.628Z,7.23
2023-03-05T17:11:51.511Z,6.23
2023-03-05T17:14:17.911Z,6.30
2023-03-05T17:16:44.272Z,7.70
2023-03-05T17:19:10.590Z,10.87
2023-03-05T17:21:36.901Z,6.50
2023-03-05T17:24:03.752Z,5.83
2023-03-05T17:26:32.711Z,5.87
2023-03-05T17:28:59.435Z,6.37
2023-03-05T17:31:25.859Z,6.67
2023-03-05T17:33:54.100Z,5.70
2023-03-05T17:36:20.886Z,6.17
2023-03-05T17:38:47.760Z,6.10
2023-03-05T17:41:14.883Z,5.83
2023-03-05T17:43:41.596Z,5.87
2023-03-05T17:46:08.233Z,5.50
2023-03-05T17:48:34.558Z,5.80
2023-03-05T17:51:01.345Z,5.60
2023-03-05T17:53:27.849Z,5.67
2023-03-05T17:55:54.220Z,4.93
2023-03-05T17:58:20.510Z,5.10
2023-03-05T18:00:47.070Z,5.33
2023-03-05T18:03:13.433Z,5.20
2023-03-05T18:05:40.877Z,5.10
2023-03-05T18:08:07.534Z,5.40
2023-03-05T18:10:34.016Z,6.03
2023-03-05T18:13:00.367Z,5.23
2023-03-05T18:15:27.433Z,5.67
2023-03-05T18:17:53.846Z,27.37
2023-03-05T18:20:23.096Z,6.10
2023-03-05T18:22:49.415Z,5.63
2023-03-05T18:25:15.683Z,5.00
2023-03-05T18:27:41.987Z,5.60
2023-03-05T18:30:08.757Z,6.03
2023-03-05T18:32:35.039Z,5.50
2023-03-05T18:35:01.485Z,6.43
2023-03-05T18:37:27.743Z,6.13
2023-03-05T18:39:54.034Z,6.00
2023-03-05T18:42:20.301Z,6.20
2023-03-05T18:44:46.569Z,6.10
2023-03-05T18:47:12.878Z,6.13
2023-03-05T18:49:39.203Z,6.47
2023-03-05T18:52:05.470Z,6.17
2023-03-05T18:54:33.197Z,6.13
2023-03-05T18:56:59.496Z,6.90
2023-03-05T18:59:26.231Z,6.83
2023-03-05T19:01:52.508Z,6.13
2023-03-05T19:04:18.845Z,7.53
2023-03-05T19:06:45.110Z,6.80
2023-03-05T19:09:39.742Z,6.60
2023-03-05T19:12:06.153Z,6.63
2023-03-05T19:14:32.434Z,10.07
2023-03-05T19:16:58.713Z,9.30
2023-03-05T19:19:25.329Z,6.30
2023-03-05T19:21:57.020Z,6.70
2023-03-05T19:24:24.059Z,6.40
2023-03-05T19:26:55.031Z,7.23
2023-03-05T19:29:22.075Z,6.30
2023-03-05T19:31:48.428Z,6.20
2023-03-05T19:34:14.724Z,7.03
2023-03-05T19:36:41.011Z,6.40
2023-03-05T19:39:07.773Z,6.33
2023-03-05T19:41:34.471Z,7.17
2023-03-05T19:44:01.119Z,5.97
2023-03-05T19:46:27.572Z,6.70
2023-03-05T19:48:53.942Z,7.23
2023-03-05T19:51:21.477Z,6.67
2023-03-05T19:53:48.102Z,7.20
2023-03-05T19:56:18.310Z,5.80
2023-03-05T19:58:45.564Z,5.77
2023-03-05T20:01:13.270Z,6.13
2023-03-05T20:03:43.100Z,5.50
2023-03-05T20:06:09.451Z,8.10
2023-03-05T20:08:35.806Z,7.53
2023-03-05T20:11:02.141Z,6.23
2023-03-05T20:13:28.723Z,6.67
2023-03-05T20:15:55.077Z,6.37
2023-03-05T20:18:21.424Z,5.63
2023-03-05T20:20:54.842Z,5.60
2023-03-05T20:23:21.769Z,6.50
2023-03-05T20:25:48.447Z,8.67
2023-03-05T20:28:14.842Z,5.27
2023-03-05T20:30:41.139Z,5.43
2023-03-05T20:33:07.423Z,6.10
2023-03-05T20:35:33.876Z,5.70
2023-03-05T20:38:25.049Z,4.97
2023-03-05T20:40:55.815Z,5.17
2023-03-05T20:43:22.890Z,6.13
2023-03-05T20:45:49.675Z,6.23
2023-03-05T20:48:16.189Z,6.20
2023-03-05T20:50:42.518Z,5.33
2023-03-05T20:53:08.990Z,5.70
2023-03-05T20:55:35.377Z,5.77
2023-03-05T20:58:01.758Z,5.13
2023-03-05T21:00:28.096Z,5.53
2023-03-05T21:02:56.226Z,5.10
2023-03-05T21:05:23.628Z,4.90
2023-03-05T21:07:50.149Z,5.07
2023-03-05T21:10:16.724Z,31.73
2023-03-05T21:12:43.724Z,6.50
2023-03-05T21:15:10.737Z,5.17
2023-03-05T21:17:37.037Z,4.83
2023-03-05T21:20:05.728Z,5.00
2023-03-05T21:22:32.372Z,5.63
2023-03-05T21:25:36.908Z,5.33
2023-03-05T21:28:05.139Z,5.27
2023-03-05T21:30:38.520Z,5.10
2023-03-05T21:33:06.481Z,5.40
2023-03-05T21:35:33.233Z,5.20
2023-03-05T21:37:59.868Z,6.37
2023-03-05T21:40:26.483Z,6.07
2023-03-05T21:42:53.183Z,5.83
2023-03-05T21:45:20.952Z,5.60
2023-03-05T21:47:47.688Z,6.63
2023-03-05T21:50:15.333Z,6.00
2023-03-05T21:52:42.355Z,6.30
2023-03-05T21:55:11.629Z,5.73
2023-03-05T21:57:37.879Z,6.53
2023-03-05T22:00:06.328Z,6.10
2023-03-05T22:02:32.586Z,6.50
2023-03-05T22:04:58.839Z,6.03
2023-03-05T22:07:25.123Z,5.53
2023-03-05T22:09:55.175Z,12.70
2023-03-05T22:13:05.278Z,6.57
2023-03-05T22:15:31.563Z,6.13
2023-03-05T22:17:57.861Z,6.53
2023-03-05T22:20:24.323Z,6.50
2023-03-05T22:22:50.630Z,6.37
2023-03-05T22:25:16.998Z,6.30
2023-03-05T22:27:43.651Z,6.40
2023-03-05T22:30:11.527Z,6.57
2023-03-05T22:32:38.008Z,5.80
2023-03-05T22:35:05.513Z,7.00
2023-03-05T22:37:32.460Z,6.60
2023-03-05T22:39:58.930Z,6.47
2023-03-05T22:42:25.433Z,7.03
2023-03-05T22:44:57.660Z,6.83
2023-03-05T22:47:24.723Z,6.77
2023-03-05T22:49:51.008Z,6.60
2023-03-05T22:52:17.263Z,7.30
2023-03-05T22:54:43.700Z,7.37
2023-03-05T22:57:09.977Z,7.83
2023-03-05T22:59:36.263Z,7.57
2023-03-05T23:02:02.865Z,7.30
2023-03-05T23:04:48.968Z,7.73
2023-03-05T23:07:29.164Z,7.90
2023-03-05T23:09:57.346Z,8.03
2023-03-05T23:12:24.552Z,7.97
2023-03-05T23:14:51.203Z,8.53
2023-03-05T23:17:17.592Z,8.63
2023-03-05T23:19:43.975Z,8.60
2023-03-05T23:22:10.986Z,8.03
2023-03-05T23:24:37.400Z,9.07
2023-03-05T23:27:05.387Z,9.27
2023-03-05T23:30:18.576Z,9.20
2023-03-05T23:32:47.774Z,9.27
2023-03-05T23:35:15.042Z,9.10
2023-03-05T23:37:41.669Z,9.50
2023-03-05T23:40:09.156Z,9.10
2023-03-05T23:42:38.116Z,9.50
2023-03-05T23:45:05.742Z,9.67
2023-03-05T23:47:33.956Z,9.50
2023-03-05T23:50:00.216Z,9.43
2023-03-05T23:52:26.536Z,10.10
2023-03-05T23:54:53.958Z,10.00
2023-03-05T23:57:20.253Z,9.23
2023-03-05T23:59:46.509Z,10.27
